createdAt,value
2022-12-22T00:01:05.304Z,83.20
2022-12-22T00:03:51.430Z,83.67
2022-12-22T00:06:37.655Z,82.97
2022-12-22T00:09:23.989Z,82.73
2022-12-22T00:12:11.546Z,85.17
2022-12-22T00:14:57.736Z,85.53
2022-12-22T00:17:45.055Z,84.07
2022-12-22T00:20:31.990Z,83.03
2022-12-22T00:23:18.128Z,82.77
2022-12-22T00:26:04.700Z,82.67
2022-12-22T00:28:52.474Z,86.00
2022-12-22T00:31:39.360Z,84.83
2022-12-22T00:34:30.932Z,84.23
2022-12-22T00:37:18.362Z,82.67
2022-12-22T00:40:04.143Z,83.13
2022-12-22T00:42:50.341Z,81.20
2022-12-22T00:45:38.196Z,83.80
2022-12-22T00:48:25.066Z,82.83
2022-12-22T00:51:10.968Z,80.93
2022-12-22T00:53:57.138Z,83.67
2022-12-22T00:56:42.933Z,84.00
2022-12-22T00:59:29.343Z,82.40
2022-12-22T01:02:17.292Z,81.33
2022-12-22T01:05:03.210Z,81.80
2022-12-22T01:07:49.414Z,78.90
2022-12-22T01:10:35.627Z,78.33
2022-12-22T01:13:21.528Z,78.80
2022-12-22T01:16:08.022Z,79.53
2022-12-22T01:18:55.560Z,79.27
2022-12-22T01:21:41.263Z,78.33
2022-12-22T01:24:30.345Z,77.17
2022-12-22T01:27:16.539Z,77.10
2022-12-22T01:30:02.601Z,79.97
2022-12-22T01:32:48.462Z,80.43
2022-12-22T01:35:38.633Z,82.00
2022-12-22T01:38:24.598Z,82.17
2022-12-22T01:41:11.063Z,83.30
2022-12-22T01:43:57.316Z,81.97
2022-12-22T01:46:44.257Z,85.37
2022-12-22T01:49:31.616Z,84.10
2022-12-22T01:52:19.441Z,85.90
2022-12-22T01:55:05.746Z,82.60
2022-12-22T01:57:52.268Z,85.33
2022-12-22T02:00:38.648Z,83.70
2022-12-22T02:03:34.045Z,85.83
2022-12-22T02:06:26.299Z,89.00
2022-12-22T02:09:19.855Z,83.57
2022-12-22T02:12:10.409Z,85.33
2022-12-22T02:15:00.017Z,85.47
2022-12-22T02:17:48.054Z,82.97
2022-12-22T02:20:45.637Z,84.90
2022-12-22T02:23:36.547Z,86.57
2022-12-22T02:26:29.393Z,87.17
2022-12-22T02:29:16.755Z,84.27
2022-12-22T02:32:02.575Z,85.07
2022-12-22T02:34:48.524Z,89.70
2022-12-22T02:37:38.349Z,89.03
2022-12-22T02:40:35.677Z,87.47
2022-12-22T02:43:32.626Z,88.50
2022-12-22T02:46:21.249Z,87.90
2022-12-22T02:49:10.103Z,92.63
2022-12-22T02:51:59.570Z,90.97
2022-12-22T02:54:46.150Z,90.77
2022-12-22T02:57:34.550Z,90.17
2022-12-22T03:00:20.645Z,90.43
2022-12-22T03:03:08.047Z,92.47
2022-12-22T03:05:55.191Z,91.43
2022-12-22T03:08:41.352Z,91.30
2022-12-22T03:11:27.736Z,92.20
2022-12-22T03:14:13.597Z,91.03
2022-12-22T03:16:59.818Z,90.57
2022-12-22T03:19:47.503Z,96.57
2022-12-22T03:22:33.638Z,96.97
2022-12-22T03:25:19.718Z,95.73
2022-12-22T03:27:48.253Z,94.97
2022-12-22T03:30:16.719Z,94.47
2022-12-22T03:32:45.134Z,94.13
2022-12-22T03:35:14.955Z,96.00
2022-12-22T03:37:43.319Z,94.57
2022-12-22T03:40:11.979Z,97.90
2022-12-22T03:43:00.232Z,93.90
2022-12-22T03:45:46.170Z,92.30
2022-12-22T03:48:14.960Z,95.03
2022-12-22T03:50:45.233Z,94.73
2022-12-22T03:53:14.544Z,96.47
2022-12-22T03:55:42.962Z,98.17
2022-12-22T03:58:11.347Z,98.50
2022-12-22T04:00:39.851Z,96.73
2022-12-22T04:03:08.448Z,96.40
2022-12-22T04:05:37.903Z,94.03
2022-12-22T04:08:08.173Z,95.93
2022-12-22T04:10:54.383Z,93.97
2022-12-22T04:13:22.792Z,95.63
2022-12-22T04:15:51.191Z,95.53
2022-12-22T04:18:19.603Z,95.90
2022-12-22T04:20:48.060Z,94.90
2022-12-22T04:23:17.848Z,96.90
2022-12-22T04:25:46.285Z,96.23
2022-12-22T04:28:14.733Z,95.93
2022-12-22T04:30:43.183Z,96.20
2022-12-22T04:33:11.756Z,96.20
2022-12-22T04:35:40.126Z,93.37
2022-12-22T04:38:08.533Z,92.63
2022-12-22T04:40:38.397Z,93.43
2022-12-22T04:43:06.795Z,96.40
2022-12-22T04:45:35.249Z,96.40
2022-12-22T04:48:03.677Z,95.47
2022-12-22T04:50:32.076Z,93.03
2022-12-22T04:53:00.454Z,96.47
2022-12-22T04:55:28.864Z,94.47
2022-12-22T04:57:58.633Z,95.10
2022-12-22T05:00:27.011Z,94.67
2022-12-22T05:02:55.572Z,93.07
2022-12-22T05:05:24.145Z,95.47
2022-12-22T05:07:52.606Z,94.57
2022-12-22T05:10:21.048Z,95.10
2022-12-22T05:12:55.606Z,94.53
2022-12-22T05:15:25.440Z,96.90
2022-12-22T05:17:53.932Z,93.37
2022-12-22T05:20:22.478Z,91.97
2022-12-22T05:22:50.915Z,93.50
2022-12-22T05:25:19.926Z,92.70
2022-12-22T05:27:49.014Z,92.57
2022-12-22T05:30:18.847Z,91.60
2022-12-22T05:32:49.129Z,94.20
2022-12-22T05:35:17.767Z,94.73
2022-12-22T05:37:46.239Z,92.73
2022-12-22T05:40:14.752Z,94.67
2022-12-22T05:42:43.171Z,94.73
2022-12-22T05:45:13.478Z,97.07
2022-12-22T05:47:42.034Z,94.07
2022-12-22T05:50:13.062Z,95.07
2022-12-22T05:52:41.482Z,91.07
2022-12-22T05:55:10.237Z,94.10
2022-12-22T05:57:38.696Z,92.03
2022-12-22T06:00:07.797Z,89.93
2022-12-22T06:02:36.255Z,96.33
2022-12-22T06:05:04.760Z,92.33
2022-12-22T06:07:34.540Z,94.70
2022-12-22T06:10:11.955Z,100.13
2022-12-22T06:12:41.400Z,96.30
2022-12-22T06:15:10.740Z,93.57
2022-12-22T06:17:44.371Z,94.10
2022-12-22T06:20:13.932Z,93.23
2022-12-22T06:22:43.694Z,93.63
2022-12-22T06:25:18.225Z,96.27
2022-12-22T06:27:47.382Z,97.63
2022-12-22T06:30:16.324Z,94.70
2022-12-22T06:32:44.781Z,78.60
2022-12-22T06:35:13.302Z,72.13
2022-12-22T06:37:41.664Z,62.30
2022-12-22T06:40:12.255Z,59.80
2022-12-22T06:43:02.380Z,58.47
2022-12-22T06:45:36.482Z,53.77
2022-12-22T06:48:04.999Z,55.40
2022-12-22T06:50:33.775Z,54.80
2022-12-22T06:53:02.245Z,54.00
2022-12-22T06:55:32.044Z,59.93
2022-12-22T06:58:00.648Z,59.67
2022-12-22T07:00:29.148Z,54.73
2022-12-22T07:02:57.854Z,56.60
2022-12-22T07:05:26.642Z,54.20
2022-12-22T07:07:55.160Z,63.23
2022-12-22T07:10:43.590Z,80.83
2022-12-22T07:13:24.195Z,95.20
2022-12-22T07:15:59.976Z,95.27
2022-12-22T07:18:29.990Z,94.60
2022-12-22T07:20:58.561Z,95.13
2022-12-22T07:23:27.269Z,98.30
2022-12-22T07:25:55.748Z,95.07
2022-12-22T07:28:25.895Z,93.97
2022-12-22T07:30:55.642Z,88.27
2022-12-22T07:33:24.093Z,90.10
2022-12-22T07:36:02.644Z,96.47
2022-12-22T07:38:31.079Z,95.40
2022-12-22T07:41:04.821Z,91.63
2022-12-22T07:43:34.443Z,86.10
2022-12-22T07:46:02.875Z,92.03
2022-12-22T07:48:49.075Z,93.10
2022-12-22T07:51:17.458Z,88.37
2022-12-22T07:53:45.837Z,85.60
2022-12-22T07:56:14.253Z,84.53
2022-12-22T07:58:44.019Z,85.43
2022-12-22T08:01:12.405Z,82.07
2022-12-22T08:03:40.879Z,80.43
2022-12-22T08:06:09.672Z,80.60
2022-12-22T08:08:38.047Z,80.20
2022-12-22T08:11:06.954Z,80.67
2022-12-22T08:13:36.146Z,79.13
2022-12-22T08:16:06.407Z,79.80
2022-12-22T08:18:35.245Z,78.17
2022-12-22T08:21:03.740Z,79.63
2022-12-22T08:23:32.149Z,81.53
2022-12-22T08:26:02.952Z,78.40
2022-12-22T08:28:31.983Z,79.07
2022-12-22T08:31:00.792Z,79.07
2022-12-22T08:33:30.740Z,75.53
2022-12-22T08:36:05.823Z,78.50
2022-12-22T08:38:36.386Z,77.23
2022-12-22T08:41:05.019Z,77.70
2022-12-22T08:43:34.979Z,72.37
2022-12-22T08:46:03.692Z,66.97
2022-12-22T08:48:33.470Z,61.27
2022-12-22T08:51:01.860Z,70.33
2022-12-22T08:54:03.033Z,75.03
2022-12-22T08:56:18.666Z,72.60
2022-12-22T08:58:47.062Z,73.67
2022-12-22T09:01:19.259Z,72.27
2022-12-22T09:03:52.151Z,75.83
2022-12-22T09:06:26.940Z,70.67
2022-12-22T09:08:56.602Z,72.53
2022-12-22T09:11:25.377Z,72.70
2022-12-22T09:13:54.081Z,75.30
2022-12-22T09:16:22.932Z,75.53
2022-12-22T09:18:52.816Z,77.57
2022-12-22T09:21:21.257Z,74.00
2022-12-22T09:23:49.820Z,73.93
2022-12-22T09:26:19.277Z,73.63
2022-12-22T09:28:50.406Z,72.57
2022-12-22T09:31:19.791Z,71.13
2022-12-22T09:33:48.600Z,71.93
2022-12-22T09:36:19.673Z,71.17
2022-12-22T09:38:48.188Z,74.27
2022-12-22T09:41:18.317Z,74.37
2022-12-22T09:43:46.922Z,72.27
2022-12-22T09:46:21.127Z,73.23
2022-12-22T09:48:49.710Z,72.63
2022-12-22T09:51:26.432Z,70.87
2022-12-22T09:53:57.093Z,71.63
2022-12-22T09:56:25.971Z,64.00
2022-12-22T09:58:54.388Z,58.00
2022-12-22T10:01:34.894Z,66.57
2022-12-22T10:04:06.294Z,66.47
2022-12-22T10:06:41.792Z,70.43
2022-12-22T10:09:46.260Z,69.43
2022-12-22T10:12:06.649Z,69.33
2022-12-22T10:14:35.918Z,68.67
2022-12-22T10:17:17.164Z,68.73
2022-12-22T10:19:46.125Z,67.57
2022-12-22T10:22:24.239Z,65.83
2022-12-22T10:24:52.654Z,68.83
2022-12-22T10:27:27.488Z,70.03
2022-12-22T10:29:58.187Z,69.40
2022-12-22T10:32:26.697Z,67.77
2022-12-22T10:35:00.795Z,67.57
2022-12-22T10:37:34.925Z,70.93
2022-12-22T10:40:15.051Z,66.03
2022-12-22T10:42:46.113Z,64.83
2022-12-22T10:45:18.752Z,59.27
2022-12-22T10:47:48.884Z,63.80
2022-12-22T10:50:17.737Z,66.73
2022-12-22T10:52:54.190Z,66.70
2022-12-22T10:55:23.276Z,63.80
2022-12-22T10:57:52.001Z,63.80
2022-12-22T11:00:25.492Z,66.17
2022-12-22T11:02:54.442Z,68.83
2022-12-22T11:05:23.327Z,69.60
2022-12-22T11:07:53.512Z,69.90
2022-12-22T11:10:34.830Z,70.17
2022-12-22T11:13:09.755Z,68.43
2022-12-22T11:15:41.071Z,65.57
2022-12-22T11:18:15.650Z,69.53
2022-12-22T11:20:49.075Z,70.83
2022-12-22T11:23:23.231Z,66.17
2022-12-22T11:25:56.768Z,66.63
2022-12-22T11:28:32.315Z,64.77
2022-12-22T11:31:04.557Z,64.93
2022-12-22T11:33:43.363Z,68.93
2022-12-22T11:36:16.726Z,69.83
2022-12-22T11:38:50.146Z,58.43
2022-12-22T11:41:24.727Z,70.63
2022-12-22T11:43:59.498Z,75.93
2022-12-22T11:46:30.946Z,73.17
2022-12-22T11:49:17.256Z,71.50
2022-12-22T11:51:53.719Z,70.00
2022-12-22T11:54:40.537Z,68.40
2022-12-22T11:57:15.139Z,70.37
2022-12-22T11:59:47.814Z,71.00
2022-12-22T12:02:35.719Z,70.10
2022-12-22T12:05:25.129Z,67.00
2022-12-22T12:07:57.551Z,66.93
2022-12-22T12:10:29.008Z,66.17
2022-12-22T12:13:01.991Z,67.20
2022-12-22T12:15:32.940Z,69.17
2022-12-22T12:18:17.521Z,69.33
2022-12-22T12:20:52.302Z,67.87
2022-12-22T12:23:24.847Z,68.93
2022-12-22T12:25:59.752Z,71.80
2022-12-22T12:28:32.984Z,69.00
2022-12-22T12:31:02.436Z,68.17
2022-12-22T12:33:38.187Z,68.57
2022-12-22T12:36:11.858Z,67.40
2022-12-22T12:41:39.832Z,70.20
2022-12-22T12:44:11.297Z,72.70
2022-12-22T12:46:46.630Z,69.37
2022-12-22T12:49:33.691Z,71.60
2022-12-22T12:52:02.631Z,62.80
2022-12-22T12:54:40.783Z,67.70
2022-12-22T12:57:23.983Z,70.80
2022-12-22T12:59:52.972Z,72.60
2022-12-22T13:02:41.165Z,72.10
2022-12-22T13:05:15.758Z,73.23
2022-12-22T13:08:02.884Z,65.23
2022-12-22T13:10:31.284Z,65.13
2022-12-22T13:13:01.023Z,71.03
2022-12-22T13:15:30.997Z,71.80
2022-12-22T13:17:59.753Z,73.23
2022-12-22T13:20:29.815Z,75.17
2022-12-22T13:22:59.439Z,73.93
2022-12-22T13:25:28.947Z,74.73
2022-12-22T13:27:59.386Z,59.90
2022-12-22T13:30:31.118Z,71.93
2022-12-22T13:33:02.265Z,74.70
2022-12-22T13:35:37.490Z,76.67
2022-12-22T13:38:07.544Z,78.90
2022-12-22T13:40:42.075Z,74.40
2022-12-22T13:43:13.129Z,77.40
2022-12-22T13:45:43.837Z,62.80
2022-12-22T13:48:16.056Z,75.07
2022-12-22T13:50:45.766Z,75.77
2022-12-22T13:53:42.114Z,79.10
2022-12-22T13:56:07.836Z,82.40
2022-12-22T13:58:38.470Z,81.27
2022-12-22T14:01:17.411Z,74.03
2022-12-22T14:04:00.158Z,71.93
2022-12-22T14:06:31.363Z,81.10
2022-12-22T14:09:14.020Z,82.67
2022-12-22T14:11:48.965Z,80.43
2022-12-22T14:14:21.259Z,81.90
2022-12-22T14:16:51.995Z,80.23
2022-12-22T14:19:21.816Z,80.20
2022-12-22T14:21:52.119Z,71.33
2022-12-22T14:24:23.738Z,77.83
2022-12-22T14:26:52.795Z,80.10
2022-12-22T14:29:23.117Z,81.97
2022-12-22T14:31:57.104Z,78.83
2022-12-22T14:34:29.519Z,62.60
2022-12-22T14:36:59.423Z,73.13
2022-12-22T14:39:30.832Z,77.27
2022-12-22T14:42:00.622Z,79.33
2022-12-22T14:44:30.496Z,80.03
2022-12-22T14:47:18.424Z,78.93
2022-12-22T14:49:48.414Z,77.40
2022-12-22T14:52:20.499Z,62.30
2022-12-22T14:54:50.201Z,77.83
2022-12-22T14:57:27.274Z,78.50
2022-12-22T15:00:03.651Z,74.83
2022-12-22T15:02:39.139Z,77.97
2022-12-22T15:05:09.685Z,63.83
2022-12-22T15:10:37.936Z,77.17
2022-12-22T15:13:09.190Z,77.33
2022-12-22T15:15:37.600Z,76.63
2022-12-22T15:18:07.685Z,80.17
2022-12-22T15:20:39.575Z,61.73
2022-12-22T15:23:11.997Z,71.00
2022-12-22T15:25:40.401Z,78.47
2022-12-22T15:28:08.806Z,79.60
2022-12-22T15:30:37.912Z,77.60
2022-12-22T15:33:11.623Z,81.07
2022-12-22T15:35:40.054Z,61.70
2022-12-22T15:38:11.624Z,72.33
2022-12-22T15:40:40.129Z,79.37
2022-12-22T15:43:22.187Z,81.57
2022-12-22T15:45:57.638Z,77.80
2022-12-22T15:48:29.034Z,72.60
2022-12-22T15:50:57.780Z,72.60
2022-12-22T15:53:26.357Z,81.23
2022-12-22T15:55:55.883Z,79.63
2022-12-22T15:58:26.071Z,77.33
2022-12-22T16:00:54.742Z,81.00
2022-12-22T16:03:23.231Z,79.17
2022-12-22T16:05:54.600Z,65.40
2022-12-22T16:08:28.038Z,71.30
2022-12-22T16:10:56.450Z,80.27
2022-12-22T16:13:27.168Z,82.10
2022-12-22T16:15:57.257Z,82.60
2022-12-22T16:18:25.727Z,85.03
2022-12-22T16:20:55.873Z,79.23
2022-12-22T16:23:25.115Z,84.20
2022-12-22T16:26:00.628Z,84.10
2022-12-22T16:28:30.082Z,85.20
2022-12-22T16:30:58.563Z,85.87
2022-12-22T16:33:27.030Z,84.80
2022-12-22T16:35:56.858Z,83.77
2022-12-22T16:38:25.218Z,82.97
2022-12-22T16:40:54.678Z,85.93
2022-12-22T16:46:14.707Z,82.33
2022-12-22T16:48:44.613Z,84.97
2022-12-22T16:51:17.181Z,90.43
2022-12-22T16:53:45.731Z,86.63
2022-12-22T16:56:16.127Z,90.37
2022-12-22T16:58:44.519Z,88.97
2022-12-22T17:01:20.568Z,88.00
2022-12-22T17:03:49.168Z,93.07
2022-12-22T17:06:19.329Z,94.13
2022-12-22T17:08:47.871Z,90.47
2022-12-22T17:11:20.365Z,87.53
2022-12-22T17:13:48.832Z,87.40
2022-12-22T17:16:20.222Z,90.43
2022-12-22T17:18:48.733Z,87.27
2022-12-22T17:21:18.190Z,84.17
2022-12-22T17:23:49.575Z,83.97
2022-12-22T17:26:19.226Z,81.83
2022-12-22T17:28:47.713Z,84.50
2022-12-22T17:31:17.155Z,81.07
2022-12-22T17:33:45.650Z,79.37
2022-12-22T17:36:18.766Z,83.43
2022-12-22T17:38:48.740Z,82.57
2022-12-22T17:41:18.690Z,78.67
2022-12-22T17:43:47.716Z,81.27
2022-12-22T17:46:16.930Z,82.13
2022-12-22T17:48:45.394Z,77.77
2022-12-22T17:51:20.894Z,79.13
2022-12-22T17:53:50.754Z,77.07
2022-12-22T17:56:20.207Z,78.23
2022-12-22T17:58:48.650Z,78.50
2022-12-22T18:01:21.570Z,79.67
2022-12-22T18:03:50.407Z,77.70
2022-12-22T18:06:19.997Z,78.03
2022-12-22T18:08:48.769Z,78.33
2022-12-22T18:11:18.612Z,76.80
2022-12-22T18:13:47.021Z,77.90
2022-12-22T18:16:16.832Z,78.27
2022-12-22T18:18:45.557Z,79.27
2022-12-22T18:21:18.057Z,78.47
2022-12-22T18:23:50.445Z,78.13
2022-12-22T18:26:22.974Z,77.43
2022-12-22T18:28:51.648Z,79.27
2022-12-22T18:31:20.262Z,74.77
2022-12-22T18:33:48.814Z,76.83
2022-12-22T18:36:18.845Z,78.00
2022-12-22T18:38:47.919Z,76.73
2022-12-22T18:41:18.853Z,79.80
2022-12-22T18:43:48.698Z,77.30
2022-12-22T18:46:17.163Z,76.97
2022-12-22T18:48:45.598Z,76.73
2022-12-22T18:51:18.873Z,78.93
2022-12-22T18:53:47.445Z,75.90
2022-12-22T18:56:15.893Z,75.57
2022-12-22T18:58:44.489Z,76.70
2022-12-22T19:01:22.604Z,76.70
2022-12-22T19:03:51.220Z,79.40
2022-12-22T19:06:20.713Z,79.63
2022-12-22T19:08:49.526Z,83.70
2022-12-22T19:11:18.998Z,81.27
2022-12-22T19:13:48.577Z,83.80
2022-12-22T19:16:18.766Z,81.33
2022-12-22T19:18:48.776Z,79.50
2022-12-22T19:21:17.499Z,81.67
2022-12-22T19:23:46.132Z,79.30
2022-12-22T19:26:19.559Z,82.17
2022-12-22T19:28:48.248Z,79.13
2022-12-22T19:31:20.977Z,76.70
2022-12-22T19:33:51.228Z,79.67
2022-12-22T19:36:21.749Z,80.37
2022-12-22T19:38:51.211Z,76.83
2022-12-22T19:41:27.477Z,79.17
2022-12-22T19:43:55.968Z,77.77
2022-12-22T19:46:24.847Z,73.77
2022-12-22T19:48:55.488Z,71.73
2022-12-22T19:51:23.865Z,72.03
2022-12-22T19:53:52.247Z,71.93
2022-12-22T19:56:23.490Z,70.10
2022-12-22T19:58:52.006Z,68.87
2022-12-22T20:01:20.505Z,66.70
2022-12-22T20:03:49.134Z,71.73
2022-12-22T20:06:19.141Z,74.27
2022-12-22T20:08:47.544Z,71.60
2022-12-22T20:11:16.823Z,71.07
2022-12-22T20:13:45.926Z,71.20
2022-12-22T20:16:15.564Z,74.20
2022-12-22T20:18:46.307Z,71.57
2022-12-22T20:21:16.389Z,73.03
2022-12-22T20:23:48.194Z,70.93
2022-12-22T20:26:17.516Z,71.47
2022-12-22T20:28:45.924Z,71.83
2022-12-22T20:31:14.960Z,72.63
2022-12-22T20:33:43.995Z,69.60
2022-12-22T20:36:17.546Z,72.90
2022-12-22T20:38:47.866Z,70.30
2022-12-22T20:41:16.322Z,68.73
2022-12-22T20:43:44.951Z,70.53
2022-12-22T20:46:15.845Z,66.30
2022-12-22T20:48:45.185Z,69.00
2022-12-22T20:51:14.959Z,68.03
2022-12-22T20:53:43.440Z,69.47
2022-12-22T20:56:18.163Z,70.00
2022-12-22T20:58:46.631Z,73.87
2022-12-22T21:01:15.294Z,74.27
2022-12-22T21:03:43.950Z,79.00
2022-12-22T21:06:24.571Z,82.53
2022-12-22T21:08:53.363Z,85.40
2022-12-22T21:11:23.115Z,81.33
2022-12-22T21:13:51.602Z,85.73
2022-12-22T21:16:23.079Z,84.07
2022-12-22T21:18:52.256Z,83.27
2022-12-22T21:21:21.136Z,81.33
2022-12-22T21:23:49.565Z,81.30
2022-12-22T21:26:20.532Z,81.87
2022-12-22T21:28:50.546Z,82.47
2022-12-22T21:31:19.032Z,81.97
2022-12-22T21:33:47.591Z,86.77
2022-12-22T21:36:19.563Z,91.67
2022-12-22T21:38:48.560Z,87.47
2022-12-22T21:41:16.944Z,84.63
2022-12-22T21:43:45.503Z,85.77
2022-12-22T21:46:15.448Z,85.57
2022-12-22T21:48:43.879Z,90.27
2022-12-22T21:51:13.650Z,93.50
2022-12-22T21:53:42.022Z,90.17
2022-12-22T21:56:18.173Z,87.37
2022-12-22T21:58:46.620Z,86.63
2022-12-22T22:01:17.299Z,86.67
2022-12-22T22:03:46.084Z,85.73
2022-12-22T22:06:15.895Z,83.97
2022-12-22T22:08:44.262Z,83.43
2022-12-22T22:11:17.982Z,86.00
2022-12-22T22:13:46.412Z,88.57
2022-12-22T22:16:16.397Z,84.80
2022-12-22T22:18:45.792Z,85.90
2022-12-22T22:21:15.501Z,85.30
2022-12-22T22:23:43.985Z,85.17
2022-12-22T22:26:12.648Z,85.17
2022-12-22T22:28:41.046Z,85.40
2022-12-22T22:31:13.117Z,86.87
2022-12-22T22:33:42.938Z,83.77
2022-12-22T22:36:11.429Z,85.30
2022-12-22T22:38:39.829Z,86.60
2022-12-22T22:41:08.261Z,85.93
2022-12-22T22:43:36.688Z,83.23
2022-12-22T22:46:05.109Z,84.33
2022-12-22T22:48:33.592Z,84.67
2022-12-22T22:51:03.332Z,85.13
2022-12-22T22:53:32.087Z,83.80
2022-12-22T22:56:03.280Z,85.33
2022-12-22T22:58:31.778Z,83.67
2022-12-22T23:01:05.429Z,86.60
2022-12-22T23:03:34.003Z,83.83
2022-12-22T23:06:04.840Z,87.43
2022-12-22T23:08:33.828Z,82.97
2022-12-22T23:11:02.229Z,86.00
2022-12-22T23:13:30.698Z,84.73
2022-12-22T23:16:00.392Z,86.70
2022-12-22T23:18:29.279Z,87.17
2022-12-22T23:20:58.693Z,88.03
2022-12-22T23:23:28.754Z,84.33
2022-12-22T23:25:57.397Z,88.30
2022-12-22T23:28:26.055Z,89.80
2022-12-22T23:30:55.030Z,90.50
2022-12-22T23:33:23.473Z,92.13
2022-12-22T23:35:52.042Z,92.93
2022-12-22T23:38:21.680Z,92.63
2022-12-22T23:40:53.436Z,92.00
2022-12-22T23:43:22.332Z,90.77
2022-12-22T23:45:50.803Z,92.67
2022-12-22T23:48:19.196Z,96.20
2022-12-22T23:50:47.798Z,94.63
2022-12-22T23:53:16.207Z,97.53
2022-12-22T23:55:44.902Z,98.27
2022-12-22T23:58:14.857Z,101.93
